Terminal Aerodrome Forecast
Issued by NWS Duluth, MN

Home | Current Version | Previous Version | Text Only | Print | Product List | Glossary On
Versions: 1 2 3 4 5 6 7 8 9 10 11 12 13 14 15 16 17
642
FTUS43 KDLH 021134
TAFINL
TAF
KINL 021134Z 0212/0312 VRB04KT P6SM SCT200
     FM022000 24006KT P6SM SCT200
     FM031100 25006KT P6SM BKN080=

USA.gov is the U.S. government's official web portal to all federal, state and local government web resources and services.